createdAt,value
2017-12-31T00:23:56.223Z,40.90
2017-12-31T00:24:54.471Z,51.20
2017-12-31T00:25:54.413Z,49.30
2017-12-31T00:26:54.413Z,44.30
2017-12-31T00:27:54.416Z,50.30
2017-12-31T00:28:54.425Z,38.30
2017-12-31T00:29:54.507Z,55.50
2017-12-31T00:30:54.424Z,53.90
2017-12-31T00:31:54.428Z,53.70
2017-12-31T00:32:54.530Z,46.50
2017-12-31T00:33:54.435Z,51.40
2017-12-31T00:34:54.437Z,45.80
2017-12-31T00:35:54.444Z,46.70
2017-12-31T00:36:54.442Z,53.60
2017-12-31T00:37:54.443Z,46.80
2017-12-31T00:38:54.447Z,46.50
2017-12-31T00:39:54.471Z,52.10
2017-12-31T00:40:54.454Z,42.80
2017-12-31T00:41:54.459Z,42.40
2017-12-31T00:42:54.462Z,60.90
2017-12-31T00:43:54.464Z,41.20
2017-12-31T00:44:54.465Z,46.80
2017-12-31T00:45:54.470Z,48.30
2017-12-31T00:46:54.473Z,50.30
2017-12-31T00:47:54.481Z,47.90
2017-12-31T00:48:54.479Z,46.40
2017-12-31T00:49:54.481Z,49.90
2017-12-31T00:50:54.486Z,50.90
2017-12-31T00:51:54.522Z,44.00
2017-12-31T00:52:54.557Z,53.80
2017-12-31T00:53:54.499Z,49.30
2017-12-31T00:54:54.536Z,52.40
2017-12-31T00:55:54.500Z,54.10
2017-12-31T00:56:54.501Z,46.70
2017-12-31T00:57:54.506Z,55.40
2017-12-31T00:58:54.511Z,48.00
2017-12-31T00:59:54.511Z,55.30
2017-12-31T01:00:54.512Z,47.50
2017-12-31T01:01:54.518Z,60.50
2017-12-31T01:02:54.521Z,53.90
2017-12-31T01:03:54.521Z,50.00
2017-12-31T01:04:54.524Z,53.30
2017-12-31T01:05:54.524Z,48.80
2017-12-31T01:06:54.527Z,58.70
2017-12-31T01:07:54.532Z,66.90
2017-12-31T01:08:54.536Z,49.30
2017-12-31T01:09:54.572Z,61.20
2017-12-31T01:10:54.548Z,58.30
2017-12-31T01:11:54.589Z,60.10
2017-12-31T01:12:54.548Z,51.60
2017-12-31T01:13:54.553Z,51.80
2017-12-31T01:14:54.552Z,66.60
2017-12-31T01:15:54.560Z,61.40
2017-12-31T01:16:54.572Z,49.90
2017-12-31T01:17:54.563Z,51.10
2017-12-31T01:18:54.571Z,59.50
2017-12-31T01:19:54.568Z,48.00
2017-12-31T01:20:54.572Z,49.60
2017-12-31T01:21:54.574Z,40.50
2017-12-31T01:22:54.574Z,38.60
2017-12-31T01:23:54.590Z,39.60
2017-12-31T01:24:54.674Z,44.60
2017-12-31T01:25:54.580Z,42.60
2017-12-31T01:26:54.697Z,42.30
2017-12-31T01:27:54.590Z,30.40
2017-12-31T01:28:54.597Z,33.40
2017-12-31T01:29:54.602Z,37.70
2017-12-31T01:30:54.611Z,35.00
2017-12-31T01:31:54.612Z,28.90
2017-12-31T01:32:54.626Z,39.40
2017-12-31T01:33:54.609Z,32.30
2017-12-31T01:34:54.614Z,34.20
2017-12-31T01:35:54.615Z,33.30
2017-12-31T01:36:54.617Z,33.90
2017-12-31T01:37:54.624Z,28.70
2017-12-31T01:38:54.668Z,32.60
2017-12-31T01:39:54.632Z,28.20
2017-12-31T01:40:54.632Z,30.10
2017-12-31T01:41:54.665Z,28.90
2017-12-31T01:42:54.639Z,32.20
2017-12-31T01:43:54.703Z,28.20
2017-12-31T01:44:54.644Z,32.00
2017-12-31T01:45:54.717Z,35.60
2017-12-31T01:46:54.651Z,29.90
2017-12-31T01:47:54.733Z,33.30
2017-12-31T01:48:54.654Z,37.90
2017-12-31T01:49:54.741Z,38.50
2017-12-31T01:50:54.668Z,40.50
2017-12-31T01:51:54.755Z,37.30
2017-12-31T01:52:54.667Z,32.60
2017-12-31T01:53:54.770Z,35.80
2017-12-31T01:54:54.680Z,40.90
2017-12-31T01:55:55.722Z,37.50
2017-12-31T01:56:54.688Z,42.10
2017-12-31T01:57:54.698Z,44.90
2017-12-31T01:58:54.686Z,48.10
2017-12-31T01:59:54.712Z,44.00
2017-12-31T02:00:54.693Z,40.40
2017-12-31T02:01:54.725Z,37.50
2017-12-31T02:02:54.697Z,41.20
2017-12-31T02:03:54.739Z,38.10
2017-12-31T02:04:54.701Z,39.50
2017-12-31T02:05:54.752Z,48.00
2017-12-31T02:06:54.714Z,46.10
2017-12-31T02:07:54.767Z,38.40
2017-12-31T02:08:54.716Z,42.20
2017-12-31T02:09:54.782Z,50.50
2017-12-31T02:10:54.720Z,55.60
2017-12-31T02:11:54.791Z,45.50
2017-12-31T02:12:54.726Z,44.20
2017-12-31T02:13:54.802Z,45.80
2017-12-31T02:14:54.736Z,41.10
2017-12-31T02:15:54.819Z,38.40
2017-12-31T02:16:54.739Z,41.70
2017-12-31T02:17:54.832Z,44.40
2017-12-31T02:18:54.752Z,53.10
2017-12-31T02:19:54.844Z,51.10
2017-12-31T02:20:54.752Z,44.30
2017-12-31T02:21:54.855Z,48.40
2017-12-31T02:22:54.759Z,49.00
2017-12-31T02:23:55.793Z,42.40
2017-12-31T02:24:54.762Z,46.00
2017-12-31T02:25:54.782Z,48.00
2017-12-31T02:26:54.773Z,46.90
2017-12-31T02:27:54.796Z,40.60
2017-12-31T02:28:54.776Z,39.50
2017-12-31T02:29:54.805Z,45.00
2017-12-31T02:30:54.789Z,50.10
2017-12-31T02:31:54.827Z,48.00
2017-12-31T02:32:54.789Z,45.40
2017-12-31T02:33:54.837Z,47.90
2017-12-31T02:34:54.796Z,45.00
2017-12-31T02:35:54.852Z,39.40
2017-12-31T02:36:54.802Z,48.70
2017-12-31T02:37:54.857Z,46.60
2017-12-31T02:38:54.805Z,43.90
2017-12-31T02:39:54.877Z,48.20
2017-12-31T02:40:54.811Z,41.80
2017-12-31T02:41:54.891Z,40.60
2017-12-31T02:42:54.825Z,51.90
2017-12-31T02:43:54.905Z,48.40
2017-12-31T02:44:54.830Z,48.20
2017-12-31T02:45:54.917Z,45.30
2017-12-31T02:46:54.829Z,45.30
2017-12-31T02:47:54.932Z,45.50
2017-12-31T02:48:54.840Z,46.80
2017-12-31T02:49:54.951Z,43.30
2017-12-31T02:50:54.843Z,46.60
2017-12-31T02:51:54.849Z,48.80
2017-12-31T02:52:54.850Z,45.80
2017-12-31T02:53:54.871Z,47.00
2017-12-31T02:54:54.858Z,50.50
2017-12-31T02:55:54.888Z,43.00
2017-12-31T02:56:54.858Z,40.00
2017-12-31T02:57:54.897Z,51.00
2017-12-31T02:58:54.868Z,45.70
2017-12-31T02:59:55.937Z,42.30
2017-12-31T03:00:54.883Z,47.40
2017-12-31T03:01:54.926Z,51.90
2017-12-31T03:02:54.876Z,52.30
2017-12-31T03:03:54.940Z,51.70
2017-12-31T03:04:54.884Z,50.50
2017-12-31T03:05:54.953Z,52.40
2017-12-31T03:06:54.891Z,54.80
2017-12-31T03:07:54.965Z,52.30
2017-12-31T03:08:54.898Z,55.10
2017-12-31T03:09:54.979Z,47.30
2017-12-31T03:10:54.906Z,53.50
2017-12-31T03:11:54.991Z,46.60
2017-12-31T03:12:54.907Z,56.70
2017-12-31T03:13:55.006Z,53.10
2017-12-31T03:14:54.913Z,55.00
2017-12-31T03:15:55.021Z,52.70
2017-12-31T03:16:54.923Z,46.20
2017-12-31T03:17:55.037Z,56.00
2017-12-31T03:18:54.930Z,47.60
2017-12-31T03:19:54.951Z,48.70
2017-12-31T03:20:54.933Z,53.50
2017-12-31T03:21:54.960Z,57.10
2017-12-31T03:22:54.943Z,51.40
2017-12-31T03:23:54.974Z,49.50
2017-12-31T03:24:54.947Z,47.80
2017-12-31T03:25:54.992Z,47.30
2017-12-31T03:26:54.951Z,46.60
2017-12-31T03:27:55.004Z,54.50
2017-12-31T03:28:54.957Z,51.30
2017-12-31T03:29:55.023Z,51.10
2017-12-31T03:30:54.969Z,49.40
2017-12-31T03:31:55.031Z,48.10
2017-12-31T03:32:54.966Z,58.80
2017-12-31T03:33:55.043Z,54.70
2017-12-31T03:34:54.981Z,53.30
2017-12-31T03:35:55.058Z,52.10
2017-12-31T03:36:54.977Z,54.10
2017-12-31T03:37:55.071Z,50.70
2017-12-31T03:38:54.988Z,50.30
2017-12-31T03:39:56.108Z,51.70
2017-12-31T03:40:54.998Z,50.70
2017-12-31T03:41:55.104Z,46.80
2017-12-31T03:42:55.010Z,49.80
2017-12-31T03:43:55.120Z,45.20
2017-12-31T03:44:55.009Z,50.10
2017-12-31T03:45:55.027Z,50.60
2017-12-31T03:46:55.013Z,53.90
2017-12-31T03:47:55.040Z,58.00
2017-12-31T03:48:55.021Z,52.70
2017-12-31T03:49:55.053Z,49.60
2017-12-31T03:50:55.029Z,55.10
2017-12-31T03:51:55.066Z,48.00
2017-12-31T03:52:55.026Z,46.60
2017-12-31T03:53:55.077Z,51.90
2017-12-31T03:54:55.038Z,52.80
2017-12-31T03:55:55.091Z,48.40
2017-12-31T03:56:55.042Z,44.60
2017-12-31T03:57:55.107Z,49.80
2017-12-31T03:58:55.053Z,53.20
2017-12-31T03:59:55.116Z,54.40
2017-12-31T04:00:55.056Z,55.00
2017-12-31T04:01:55.131Z,53.80
2017-12-31T04:02:55.061Z,61.00
2017-12-31T04:03:55.143Z,54.60
2017-12-31T04:04:55.064Z,66.10
2017-12-31T04:05:55.157Z,54.10
2017-12-31T04:06:55.073Z,56.40
2017-12-31T04:07:55.169Z,50.00
2017-12-31T04:08:55.078Z,52.80
2017-12-31T04:09:56.110Z,57.30
2017-12-31T04:10:55.085Z,62.60
2017-12-31T04:11:55.195Z,52.90
2017-12-31T04:12:55.088Z,48.10
2017-12-31T04:13:55.110Z,52.50
2017-12-31T04:14:55.099Z,47.80
2017-12-31T04:15:55.123Z,49.90
2017-12-31T04:16:55.101Z,53.50
2017-12-31T04:17:55.136Z,55.80
2017-12-31T04:18:55.103Z,52.20
2017-12-31T04:19:55.151Z,53.00
2017-12-31T04:20:55.116Z,49.90
2017-12-31T04:21:56.187Z,44.40
2017-12-31T04:22:55.123Z,54.90
2017-12-31T04:23:55.177Z,50.00
2017-12-31T04:24:55.128Z,43.00
2017-12-31T04:25:55.190Z,52.40
2017-12-31T04:26:55.139Z,52.00
2017-12-31T04:27:56.235Z,50.80
2017-12-31T04:28:55.139Z,46.10
2017-12-31T04:29:55.219Z,46.00
2017-12-31T04:30:55.148Z,54.20
2017-12-31T04:31:56.256Z,45.70
2017-12-31T04:32:55.143Z,48.20
2017-12-31T04:33:55.245Z,45.60
2017-12-31T04:34:55.150Z,48.40
2017-12-31T04:35:55.260Z,43.30
2017-12-31T04:36:55.164Z,49.70
2017-12-31T04:37:55.273Z,45.40
2017-12-31T04:38:55.174Z,47.40
2017-12-31T04:39:55.278Z,45.70
2017-12-31T04:40:55.176Z,51.30
2017-12-31T04:41:55.196Z,44.80
2017-12-31T04:42:55.185Z,44.70
2017-12-31T04:43:55.210Z,43.40
2017-12-31T04:44:55.187Z,39.40
2017-12-31T04:45:55.226Z,39.60
2017-12-31T04:46:55.192Z,41.70
2017-12-31T04:47:55.240Z,37.70
2017-12-31T04:48:55.200Z,37.70
2017-12-31T04:49:55.250Z,35.20
2017-12-31T04:50:55.210Z,36.20
2017-12-31T04:51:55.262Z,36.40
2017-12-31T04:52:55.206Z,36.30
2017-12-31T04:53:55.279Z,34.70
2017-12-31T04:54:55.227Z,30.50
2017-12-31T04:55:55.291Z,33.20
2017-12-31T04:56:55.227Z,29.20
2017-12-31T04:57:56.329Z,29.60
2017-12-31T04:58:55.231Z,33.10
2017-12-31T04:59:55.318Z,28.80
2017-12-31T05:00:55.241Z,31.40
2017-12-31T05:01:55.330Z,32.00
2017-12-31T05:02:55.246Z,31.60
2017-12-31T05:03:55.346Z,30.20
2017-12-31T05:04:55.250Z,28.90
2017-12-31T05:05:55.359Z,30.30
2017-12-31T05:06:55.256Z,31.50
2017-12-31T05:07:55.372Z,34.40
2017-12-31T05:08:55.267Z,33.50
2017-12-31T05:09:55.284Z,29.80
2017-12-31T05:10:55.272Z,31.50
2017-12-31T05:11:55.294Z,33.10
2017-12-31T05:12:55.275Z,36.60
2017-12-31T05:13:55.314Z,29.00
2017-12-31T05:14:55.280Z,27.50
2017-12-31T05:15:55.326Z,30.00
2017-12-31T05:16:55.292Z,33.30
2017-12-31T05:17:55.339Z,29.10
2017-12-31T05:18:55.293Z,28.00
2017-12-31T05:19:56.376Z,30.70
2017-12-31T05:20:55.305Z,30.80
2017-12-31T05:22:01.306Z,30.30
2017-12-31T05:22:55.311Z,30.10
2017-12-31T05:23:55.379Z,29.40
2017-12-31T05:24:55.311Z,27.80
2017-12-31T05:25:55.392Z,28.40
2017-12-31T05:26:55.320Z,29.50
2017-12-31T05:27:55.407Z,29.80
2017-12-31T05:28:55.327Z,32.40
2017-12-31T05:29:55.416Z,34.20
2017-12-31T05:30:55.330Z,30.50
2017-12-31T05:31:55.432Z,32.20
2017-12-31T05:32:55.337Z,34.30
2017-12-31T05:33:55.451Z,33.10
2017-12-31T05:34:55.340Z,33.80
2017-12-31T05:35:57.400Z,37.10
2017-12-31T05:36:55.347Z,34.60
2017-12-31T05:37:55.376Z,37.90
2017-12-31T05:38:55.357Z,39.20
2017-12-31T05:39:55.393Z,30.40
2017-12-31T05:40:55.364Z,29.90
2017-12-31T05:41:55.399Z,35.60
2017-12-31T05:42:55.365Z,36.20
2017-12-31T05:43:56.436Z,32.60
2017-12-31T05:44:55.377Z,34.60
2017-12-31T05:45:55.426Z,34.80
2017-12-31T05:46:55.390Z,33.50
2017-12-31T05:47:55.440Z,32.30
2017-12-31T05:48:55.385Z,33.50
2017-12-31T05:49:55.453Z,40.90
2017-12-31T05:50:55.395Z,37.90
2017-12-31T05:51:55.479Z,38.80
2017-12-31T05:52:55.406Z,34.00
2017-12-31T05:53:55.480Z,31.20
2017-12-31T05:54:55.409Z,36.80
2017-12-31T05:55:57.439Z,36.30
2017-12-31T05:56:55.413Z,30.60
2017-12-31T05:58:00.334Z,30.60
2017-12-31T05:58:55.416Z,33.20
2017-12-31T05:59:55.525Z,27.40
2017-12-31T06:00:55.424Z,36.30
2017-12-31T06:01:55.645Z,35.20
2017-12-31T06:02:55.436Z,31.30
2017-12-31T06:03:55.546Z,41.50
2017-12-31T06:04:55.436Z,34.20
2017-12-31T06:05:55.469Z,37.20
2017-12-31T06:06:55.447Z,36.30
2017-12-31T06:07:55.478Z,36.10
2017-12-31T06:08:55.446Z,37.90
2017-12-31T06:09:55.491Z,37.90
2017-12-31T06:10:55.456Z,32.90
2017-12-31T06:11:56.526Z,37.60
2017-12-31T06:12:55.458Z,37.20
2017-12-31T06:13:55.513Z,29.30
2017-12-31T06:14:55.470Z,31.30
2017-12-31T06:16:02.290Z,31.60
2017-12-31T06:16:55.483Z,32.20
2017-12-31T06:20:10.402Z,33.10
2017-12-31T06:21:10.379Z,35.60
2017-12-31T06:22:10.416Z,34.70
2017-12-31T06:23:10.384Z,31.00
2017-12-31T06:24:10.431Z,33.40
2017-12-31T06:25:10.391Z,30.70
2017-12-31T06:26:12.493Z,32.40
2017-12-31T06:27:10.398Z,31.70
2017-12-31T06:28:10.458Z,33.20
2017-12-31T06:29:10.403Z,30.70
2017-12-31T06:44:36.333Z,39.30
2017-12-31T06:49:44.889Z,50.40
2017-12-31T06:53:37.565Z,46.40
2017-12-31T06:56:04.574Z,45.10
2017-12-31T06:58:54.694Z,49.60
2017-12-31T07:01:30.221Z,48.70
2017-12-31T07:02:41.214Z,49.00
2017-12-31T07:04:36.275Z,43.00
2017-12-31T07:05:36.269Z,49.10
2017-12-31T07:07:30.941Z,39.80
2017-12-31T07:08:21.451Z,46.90
2017-12-31T07:09:21.459Z,45.10
2017-12-31T07:10:22.519Z,41.20
2017-12-31T07:11:30.945Z,41.70
2017-12-31T07:13:19.464Z,42.80
2017-12-31T07:16:28.675Z,39.70
2017-12-31T07:17:04.342Z,36.60
2017-12-31T07:18:13.688Z,42.50
2017-12-31T07:20:15.407Z,36.20
2017-12-31T07:21:15.425Z,31.50
2017-12-31T07:22:15.398Z,37.80
2017-12-31T07:23:15.441Z,44.90
2017-12-31T07:24:22.943Z,41.20
2017-12-31T07:26:11.456Z,43.50
2017-12-31T07:27:11.442Z,32.60
2017-12-31T07:28:12.350Z,41.20
2017-12-31T07:29:11.453Z,32.60
2017-12-31T07:31:45.700Z,35.00
2017-12-31T07:32:33.524Z,30.80
2017-12-31T07:33:33.506Z,24.90
2017-12-31T07:34:42.703Z,33.30
2017-12-31T07:36:31.505Z,45.00
2017-12-31T07:37:31.478Z,33.00
2017-12-31T07:38:31.479Z,37.90
2017-12-31T07:39:31.486Z,32.10
2017-12-31T07:40:31.491Z,40.30
2017-12-31T07:41:31.502Z,39.20
2017-12-31T07:42:31.493Z,33.20
2017-12-31T07:43:31.549Z,30.50
2017-12-31T07:44:31.520Z,26.60
2017-12-31T07:45:31.562Z,25.80
2017-12-31T07:46:31.502Z,32.10
2017-12-31T07:47:31.576Z,29.40
2017-12-31T07:48:31.517Z,28.30
2017-12-31T07:49:31.591Z,30.10
2017-12-31T07:50:31.522Z,25.00
2017-12-31T07:51:31.606Z,22.80
2017-12-31T07:52:31.531Z,32.80
2017-12-31T07:53:32.642Z,29.80
2017-12-31T07:54:31.546Z,30.00
2017-12-31T07:55:31.635Z,28.40
2017-12-31T07:56:31.540Z,27.90
2017-12-31T07:57:31.648Z,25.30
2017-12-31T07:58:31.552Z,22.00
2017-12-31T07:59:33.609Z,24.60
2017-12-31T08:00:31.552Z,28.30
2017-12-31T08:01:31.674Z,23.40
2017-12-31T08:02:31.563Z,25.70
2017-12-31T08:03:31.585Z,26.00
2017-12-31T08:04:31.568Z,27.30
2017-12-31T08:05:31.598Z,25.60
2017-12-31T08:06:31.574Z,31.00
2017-12-31T08:07:31.612Z,22.40
2017-12-31T08:08:31.579Z,26.60
2017-12-31T08:09:31.628Z,27.10
2017-12-31T08:10:31.586Z,24.40
2017-12-31T08:11:31.642Z,24.40
2017-12-31T08:12:31.600Z,25.70
2017-12-31T08:13:31.658Z,23.30
2017-12-31T08:14:31.610Z,24.20
2017-12-31T08:15:31.671Z,24.00
2017-12-31T08:16:31.611Z,27.10
2017-12-31T08:17:31.686Z,22.70
2017-12-31T08:18:31.610Z,23.80
2017-12-31T08:19:31.696Z,28.00
2017-12-31T08:20:31.624Z,25.60
2017-12-31T08:21:31.710Z,25.00
2017-12-31T08:22:31.628Z,24.10
2017-12-31T08:23:31.721Z,22.00
2017-12-31T08:24:31.640Z,26.00
2017-12-31T08:25:31.736Z,19.30
2017-12-31T08:26:31.642Z,21.30
2017-12-31T08:27:31.751Z,20.10
2017-12-31T08:28:31.655Z,23.20
2017-12-31T08:29:32.688Z,17.40
2017-12-31T08:30:31.659Z,22.00
2017-12-31T08:31:33.722Z,18.40
2017-12-31T08:32:31.671Z,22.80
2017-12-31T08:33:31.688Z,24.40
2017-12-31T08:34:31.672Z,19.80
2017-12-31T08:35:31.702Z,27.40
2017-12-31T08:36:31.677Z,27.40
2017-12-31T08:37:31.732Z,16.50
2017-12-31T08:38:33.215Z,25.80
2017-12-31T08:39:31.683Z,26.10
2017-12-31T08:40:38.070Z,24.60
2017-12-31T08:41:31.692Z,25.10
2017-12-31T08:42:32.771Z,22.80
2017-12-31T08:43:31.701Z,24.50
2017-12-31T08:44:31.770Z,26.40
2017-12-31T08:45:31.710Z,21.30
2017-12-31T08:46:31.713Z,22.90
2017-12-31T08:47:31.783Z,29.00
2017-12-31T08:48:31.721Z,21.80
2017-12-31T08:49:31.796Z,26.10
2017-12-31T08:50:31.722Z,29.20
2017-12-31T08:51:32.835Z,24.10
2017-12-31T08:52:31.735Z,24.50
2017-12-31T08:53:32.852Z,28.20
2017-12-31T08:54:31.734Z,26.60
2017-12-31T08:55:31.836Z,25.70
2017-12-31T08:56:31.747Z,22.00
2017-12-31T08:57:31.746Z,24.50
2017-12-31T08:58:31.752Z,19.80
2017-12-31T08:59:31.865Z,18.90
2017-12-31T09:00:31.759Z,21.70
2017-12-31T09:01:31.770Z,21.40
2017-12-31T09:02:32.805Z,21.30
2017-12-31T09:03:31.777Z,18.80
2017-12-31T09:04:31.775Z,21.50
2017-12-31T09:05:31.800Z,22.00
2017-12-31T09:06:31.784Z,25.50
2017-12-31T09:07:31.816Z,18.80
2017-12-31T09:08:31.781Z,25.10
2017-12-31T09:09:31.831Z,15.90
2017-12-31T09:10:31.792Z,19.90
2017-12-31T09:11:32.874Z,19.90
2017-12-31T09:12:31.801Z,20.60
2017-12-31T09:13:32.877Z,22.30
2017-12-31T09:14:31.807Z,17.50
2017-12-31T09:15:31.874Z,18.60
2017-12-31T09:16:31.814Z,18.10
2017-12-31T09:17:32.911Z,16.90
2017-12-31T09:18:31.836Z,18.80
2017-12-31T09:19:31.901Z,15.30
2017-12-31T09:20:31.841Z,17.10
2017-12-31T09:21:31.911Z,18.80
2017-12-31T09:22:31.838Z,17.30
2017-12-31T09:23:31.928Z,16.90
2017-12-31T09:24:31.852Z,19.50
2017-12-31T09:25:31.944Z,18.90
2017-12-31T09:26:31.852Z,14.00
2017-12-31T09:27:31.952Z,13.20
2017-12-31T09:28:31.860Z,19.80
2017-12-31T09:30:54.577Z,16.60
2017-12-31T09:31:55.787Z,12.20
2017-12-31T09:33:47.902Z,11.10
2017-12-31T09:34:47.839Z,12.90
2017-12-31T09:35:48.901Z,15.20
2017-12-31T09:36:47.845Z,14.80
2017-12-31T09:37:47.893Z,19.80
2017-12-31T09:38:47.853Z,12.40
2017-12-31T09:39:47.905Z,12.20
2017-12-31T09:40:47.867Z,13.80
2017-12-31T09:41:47.917Z,13.60
2017-12-31T09:42:47.874Z,12.60
2017-12-31T09:43:48.957Z,12.90
2017-12-31T09:44:47.878Z,10.40
2017-12-31T09:45:47.951Z,11.80
2017-12-31T09:46:47.880Z,15.00
2017-12-31T09:47:47.962Z,13.60
2017-12-31T09:48:47.887Z,18.10
2017-12-31T09:49:53.608Z,14.80
2017-12-31T09:50:47.896Z,13.90
2017-12-31T09:51:47.989Z,16.90
2017-12-31T09:52:47.903Z,14.60
2017-12-31T09:53:52.609Z,14.40
2017-12-31T09:54:48.905Z,15.40
2017-12-31T09:55:49.963Z,13.20
2017-12-31T09:56:47.929Z,17.10
2017-12-31T09:57:53.563Z,9.20
2017-12-31T09:58:47.924Z,15.00
2017-12-31T09:59:48.043Z,10.00
2017-12-31T10:00:47.937Z,13.70
2017-12-31T10:01:48.976Z,14.10
2017-12-31T10:02:47.934Z,11.90
2017-12-31T10:03:47.974Z,16.30
2017-12-31T10:04:47.948Z,11.10
2017-12-31T10:05:47.995Z,16.20
2017-12-31T10:06:47.951Z,17.50
2017-12-31T10:07:49.015Z,11.20
2017-12-31T10:08:47.961Z,12.00
2017-12-31T10:09:48.005Z,15.70
2017-12-31T10:10:47.968Z,17.90
2017-12-31T10:11:48.025Z,15.60
2017-12-31T10:12:47.975Z,16.30
2017-12-31T10:13:48.038Z,13.60
2017-12-31T10:14:47.986Z,12.40
2017-12-31T10:15:48.051Z,12.20
2017-12-31T10:16:47.990Z,13.30
2017-12-31T10:17:48.065Z,12.10
2017-12-31T10:18:48.002Z,12.90
2017-12-31T10:19:47.998Z,11.90
2017-12-31T10:20:48.082Z,13.50
2017-12-31T10:21:48.008Z,12.80
2017-12-31T10:22:48.097Z,17.50
2017-12-31T10:23:48.022Z,10.80
2017-12-31T10:24:49.134Z,13.10
2017-12-31T10:25:48.022Z,14.10
2017-12-31T10:26:48.122Z,9.40
2017-12-31T10:27:48.027Z,10.00
2017-12-31T10:28:48.141Z,10.10
2017-12-31T10:29:48.041Z,9.20
2017-12-31T10:30:48.149Z,9.70
2017-12-31T10:31:48.050Z,13.40
2017-12-31T10:32:48.164Z,10.60
2017-12-31T10:33:48.054Z,15.20
2017-12-31T10:34:49.201Z,11.30
2017-12-31T10:35:48.058Z,10.70
2017-12-31T10:36:48.189Z,11.40
2017-12-31T10:37:48.069Z,12.20
2017-12-31T10:38:48.208Z,13.10
2017-12-31T10:39:48.072Z,10.70
2017-12-31T10:40:49.251Z,11.00
2017-12-31T10:41:48.085Z,10.50
2017-12-31T10:42:48.235Z,12.00
2017-12-31T10:43:48.084Z,8.50
2017-12-31T10:44:48.241Z,8.90
2017-12-31T10:45:48.096Z,9.40
2017-12-31T10:46:48.257Z,7.70
2017-12-31T10:47:48.106Z,10.40
2017-12-31T10:48:48.269Z,13.50
2017-12-31T10:49:48.111Z,9.40
2017-12-31T10:50:48.184Z,9.80
2017-12-31T10:51:48.123Z,9.60
2017-12-31T10:52:48.195Z,11.20
2017-12-31T10:53:48.124Z,9.20
2017-12-31T10:54:49.231Z,11.90
2017-12-31T10:55:48.135Z,13.60
2017-12-31T10:56:48.220Z,13.30
2017-12-31T10:57:48.142Z,5.90
2017-12-31T10:58:48.236Z,8.90
2017-12-31T10:59:48.157Z,6.80
2017-12-31T11:00:49.277Z,6.90
2017-12-31T11:01:48.156Z,10.20
2017-12-31T11:02:48.264Z,7.90
2017-12-31T11:03:48.169Z,4.90
2017-12-31T11:04:48.283Z,11.50
2017-12-31T11:05:48.177Z,5.60
2017-12-31T11:06:48.292Z,9.40
2017-12-31T11:07:48.181Z,7.00
2017-12-31T11:08:48.325Z,9.00
2017-12-31T11:09:48.239Z,9.10
2017-12-31T11:10:48.258Z,10.00
2017-12-31T11:11:48.207Z,6.60
2017-12-31T11:12:48.269Z,8.90
2017-12-31T11:13:48.203Z,9.60
2017-12-31T11:14:48.282Z,8.80
2017-12-31T11:15:48.204Z,10.10
2017-12-31T11:16:48.294Z,10.90
2017-12-31T11:17:48.226Z,10.40
2017-12-31T11:18:48.218Z,10.70
2017-12-31T11:19:48.381Z,9.80
2017-12-31T11:20:48.240Z,12.90
2017-12-31T11:21:48.391Z,5.50
2017-12-31T11:22:48.243Z,7.00
2017-12-31T11:23:48.242Z,9.70
2017-12-31T11:24:48.414Z,9.40
2017-12-31T11:25:48.251Z,9.60
2017-12-31T11:26:48.430Z,8.40
2017-12-31T11:27:48.272Z,7.60
2017-12-31T11:28:49.361Z,9.20
2017-12-31T11:29:48.266Z,11.60
2017-12-31T11:30:48.351Z,6.40
2017-12-31T11:31:48.274Z,10.90
2017-12-31T11:32:48.364Z,9.40
2017-12-31T11:33:48.280Z,6.20
2017-12-31T11:34:48.380Z,7.50
2017-12-31T11:35:48.285Z,7.50
2017-12-31T11:36:48.390Z,6.30
2017-12-31T11:37:48.296Z,10.20
2017-12-31T11:38:48.405Z,13.50
2017-12-31T11:39:48.303Z,12.20
2017-12-31T11:40:48.422Z,10.30
2017-12-31T11:41:48.311Z,8.50
2017-12-31T11:42:49.460Z,9.20
2017-12-31T11:43:48.319Z,4.70
2017-12-31T11:44:48.447Z,7.60
2017-12-31T11:45:48.328Z,5.60
2017-12-31T11:46:48.459Z,9.10
2017-12-31T11:47:48.336Z,6.70
2017-12-31T11:48:48.337Z,9.20
2017-12-31T11:49:48.342Z,9.60
2017-12-31T11:50:48.348Z,6.80
2017-12-31T11:51:48.345Z,6.60
2017-12-31T11:52:48.352Z,8.00
2017-12-31T11:53:48.353Z,8.50
2017-12-31T11:54:48.519Z,9.80
2017-12-31T11:55:48.365Z,9.50
2017-12-31T11:56:48.422Z,6.90
2017-12-31T11:57:48.376Z,7.70
2017-12-31T11:58:48.441Z,9.10
2017-12-31T11:59:48.417Z,9.60
2017-12-31T12:00:48.449Z,12.00
2017-12-31T12:01:48.392Z,8.90
2017-12-31T12:02:48.396Z,9.20
2017-12-31T12:03:48.474Z,8.70
2017-12-31T12:04:48.402Z,5.20
2017-12-31T12:05:48.492Z,9.70
2017-12-31T12:06:48.424Z,9.30
2017-12-31T12:07:48.502Z,9.00
2017-12-31T12:08:48.454Z,8.00
2017-12-31T12:09:48.532Z,7.50
2017-12-31T12:10:48.461Z,7.70
2017-12-31T12:11:48.538Z,5.60
2017-12-31T12:12:48.437Z,8.90
2017-12-31T12:13:48.545Z,5.50
2017-12-31T12:14:48.448Z,8.90
2017-12-31T12:15:48.558Z,4.40
2017-12-31T12:16:48.450Z,9.70
2017-12-31T12:17:48.470Z,8.50
2017-12-31T12:18:48.462Z,8.50
2017-12-31T12:19:48.460Z,6.80
2017-12-31T12:20:48.519Z,7.90
2017-12-31T12:21:48.477Z,7.00
2017-12-31T12:22:48.474Z,8.80
2017-12-31T12:23:48.480Z,6.70
2017-12-31T12:24:48.482Z,7.30
2017-12-31T12:25:48.517Z,8.00
2017-12-31T12:26:48.494Z,7.80
2017-12-31T12:27:48.503Z,7.20
2017-12-31T12:28:48.500Z,7.50
2017-12-31T12:29:48.543Z,7.40
2017-12-31T12:30:48.509Z,5.90
2017-12-31T12:31:48.510Z,6.30
2017-12-31T12:32:48.512Z,5.90
2017-12-31T12:33:48.519Z,5.80
2017-12-31T12:34:48.528Z,7.40
2017-12-31T12:35:48.537Z,7.00
2017-12-31T12:36:48.531Z,6.60
2017-12-31T12:37:48.537Z,6.00
2017-12-31T12:38:48.542Z,11.50
2017-12-31T12:39:48.543Z,4.50
2017-12-31T12:40:48.550Z,6.10
2017-12-31T12:41:48.629Z,6.50
2017-12-31T12:42:48.561Z,5.30
2017-12-31T12:43:48.646Z,6.00
2017-12-31T12:44:48.561Z,5.80
2017-12-31T12:45:48.659Z,5.40
2017-12-31T12:46:48.573Z,6.30
2017-12-31T12:47:48.581Z,6.80
2017-12-31T12:48:48.585Z,8.00
2017-12-31T12:49:48.584Z,5.50
2017-12-31T12:50:48.591Z,7.20
2017-12-31T12:51:48.591Z,4.80
2017-12-31T12:52:48.597Z,7.90
2017-12-31T12:53:48.612Z,4.90
2017-12-31T12:54:48.624Z,3.30
2017-12-31T12:55:48.609Z,8.50
2017-12-31T12:56:48.615Z,5.00
2017-12-31T12:57:48.613Z,5.50
2017-12-31T12:58:48.625Z,6.70
2017-12-31T12:59:48.625Z,6.00
2017-12-31T13:00:48.630Z,7.60
2017-12-31T13:01:48.633Z,7.50
2017-12-31T13:02:48.641Z,7.40
2017-12-31T13:03:48.670Z,4.70
2017-12-31T13:04:48.646Z,4.30
2017-12-31T13:05:48.692Z,5.60
2017-12-31T13:06:48.659Z,4.20
2017-12-31T13:07:48.702Z,3.50
2017-12-31T13:08:48.659Z,8.00
2017-12-31T13:09:48.667Z,6.40
2017-12-31T13:10:48.675Z,8.90
2017-12-31T13:12:09.709Z,2.90
2017-12-31T13:12:48.678Z,5.80
2017-12-31T13:14:09.685Z,8.90
2017-12-31T13:14:48.694Z,6.70
2017-12-31T13:15:50.793Z,7.70
2017-12-31T13:16:48.698Z,8.50
2017-12-31T13:18:13.639Z,5.50
2017-12-31T13:18:48.710Z,5.80
2017-12-31T13:19:50.814Z,4.00
2017-12-31T13:20:48.719Z,6.40
2017-12-31T13:21:50.839Z,5.00
2017-12-31T13:22:48.711Z,5.00
2017-12-31T13:23:53.612Z,6.90
2017-12-31T13:24:48.737Z,5.70
2017-12-31T13:25:53.624Z,8.30
2017-12-31T13:26:48.743Z,7.20
2017-12-31T13:28:17.601Z,6.70
2017-12-31T13:28:48.744Z,7.60
2017-12-31T13:30:04.608Z,7.90
2017-12-31T13:30:48.757Z,5.40
2017-12-31T13:31:50.800Z,5.60
2017-12-31T13:32:48.760Z,3.10
2017-12-31T14:23:04.531Z,4.10
2017-12-31T14:24:04.619Z,7.40
2017-12-31T14:25:04.513Z,7.00
2017-12-31T14:26:05.554Z,4.50
2017-12-31T14:27:04.522Z,3.00
2017-12-31T14:28:04.541Z,5.90
2017-12-31T14:29:04.533Z,4.60
2017-12-31T14:30:04.535Z,5.50
2017-12-31T14:31:05.588Z,6.20
2017-12-31T14:32:04.558Z,6.20
2017-12-31T14:33:04.578Z,6.00
2017-12-31T14:34:04.551Z,4.40
2017-12-31T14:35:04.590Z,3.50
2017-12-31T14:36:04.563Z,4.40
2017-12-31T14:37:04.606Z,6.30
2017-12-31T14:38:04.573Z,4.40
2017-12-31T14:39:04.621Z,4.90
2017-12-31T14:40:04.587Z,4.90
2017-12-31T14:41:04.632Z,5.30
2017-12-31T14:42:04.587Z,5.00
2017-12-31T14:43:04.646Z,3.80
2017-12-31T14:44:04.600Z,4.60
2017-12-31T14:45:04.666Z,5.00
2017-12-31T14:46:04.605Z,4.50
2017-12-31T14:47:05.704Z,4.90
2017-12-31T14:48:04.618Z,4.40
2017-12-31T14:49:04.617Z,5.20
2017-12-31T14:50:04.620Z,5.20
2017-12-31T14:51:04.704Z,4.80